Aeroporto :
LOGIN :

Iscrizione | Disclaimer

   EN    FR    IT 

 










Sommario :    VFR   VFR Marginale   IFR   IFR Intensivo   IFR Molto Intensivo
Visibilità : 
Base nubi : 
>= 8 km
>= 3000ft
5 / 8 km
1000 / 3000 ft
1500m / 5 km
500 / 1000 ft
800 / 1500m
200 / 500 ft
< 800m
< 200 ft
Simboli :   Temporali  Nebbia  Neve Forte  Precipitazioni Forti  Vento > 20 kt
SIGMETs :   Varie  Temporali  Ghiacco  Turbolenza  Onda orograficha  Ceneri Vulcaniche







- Altitudine del aeroporto : 200 ft


EBBL - Klein Brogel AB

ULTIMO METAR :
  • 220725Z 24008KT 9999 BKN180 21/13 Q1024 BLU BLU

METARs OBSOLETI :
  • 220655Z 24009KT 9999 BKN180 21/12 Q1024 BLU BLU
  • 220625Z 25008KT 9999 BKN180 19/12 Q1024 BLU BLU
  • 220555Z 23008KT 9999 BKN180 18/13 Q1023 BLU BLU
  • 220525Z 23007KT 9999 BKN180 17/13 Q1023 BLU BLU
  • 220455Z 22006KT 9999 BKN180 16/13 Q1023 BLU BLU
  • 220425Z AUTO 21004KT 9999 NCD 15/13 Q1023 BLU

TAF TAF EBBL
Valido dal 22 a 07 ore il 22 a 16 ore UTC


220541Z 2207/2216 24007KT 9999 BKN250
TEMPO 2208/2211 25010G22KT FEW025
Nessun NOTAM noto per questo aeroporto.



MetMap, La meteo Aeronautica in un colpo d'occhio ! - Copyright ORBIFLY Dicembre 2007 - Disclaimer

ORBIFLY MET'MAP TEAM :

Programmazione e sviluppo : Alexandra Zaïnal
Concezione e sviluppo : Baudouin d'Aumeries
Co-Programmazione e sviluppo : Marc-Olivier Méhu
Supporto tecnico e logistico : Manuel Goepfert
Aiuto per la traduzione : Arnaldo La Scala

Contatto : metmap@orbifly.com




FONTI E CREDITI :

   NOAA